Time;durP1;ratioP1;P1;durP2;ratioP2;P2;SDS_P1;SDS_P2;PMS_P1;PMS_P2;Temp;Humidity;BMP_temperature;BMP_pressure;BME280_temperature;BME280_humidity;BME280_pressure;Samples;Min_cycle;Max_cycle;Signal;HPM_P1;HPM_P2
2022/11/18 05:06:51;;;;;;;;;32.75;21.75;;;;;;;;6286644;46;10000433;-60
2022/11/18 05:12:53;;;;;;;;;29.00;24.25;;;;;;;;6491500;39;8944;-60
2022/11/18 05:18:56;;;;;;;;;20.00;20.00;;;;;;;;6491260;46;9017;-61
2022/11/18 10:07:28;;;;;;;;;51.00;43.00;;;;;;;;6483137;31;9084;-61
2022/11/18 10:13:52;;;;;;;;;40.75;34.00;;;;;;;;6486022;39;8967;-60
2022/11/18 10:20:10;;;;;;;;;38.00;37.25;;;;;;;;6486370;39;8933;-61
2022/11/18 10:26:13;;;;;;;;;43.75;37.25;;;;;;;;6477647;31;9118;-61
2022/11/18 10:32:19;;;;;;;;;44.00;40.00;;;;;;;;6489987;39;8898;-61
2022/11/18 10:38:21;;;;;;;;;39.50;33.25;;;;;;;;6489266;31;8957;-61
2022/11/18 10:44:37;;;;;;;;;46.75;39.25;;;;;;;;6488838;31;8980;-60
2022/11/18 10:50:44;;;;;;;;;48.25;41.00;;;;;;;;6489943;39;9609;-61
2022/11/18 10:57:26;;;;;;;;;43.25;39.50;;;;;;;;6487774;39;8875;-61
2022/11/18 11:03:33;;;;;;;;;37.67;35.33;;;;;;;;6487901;39;9531;-60
2022/11/18 11:09:36;;;;;;;;;43.25;38.00;;;;;;;;6486226;39;8899;-62
2022/11/18 11:15:47;;;;;;;;;51.50;44.25;;;;;;;;6489237;31;8894;-62
2022/11/18 11:21:50;;;;;;;;;53.50;43.25;;;;;;;;6487905;39;8925;-61
2022/11/18 11:28:11;;;;;;;;;54.50;43.00;;;;;;;;6489164;39;8939;-61
2022/11/18 11:34:27;;;;;;;;;45.50;40.50;;;;;;;;6489052;46;8890;-60
2022/11/18 11:40:51;;;;;;;;;44.75;41.00;;;;;;;;6488687;46;8908;-60
2022/11/18 11:47:46;;;;;;;;;49.25;43.00;;;;;;;;6489822;31;8977;-61
2022/11/18 11:54:11;;;;;;;;;50.00;41.75;;;;;;;;6488491;39;8981;-62
2022/11/18 12:00:16;;;;;;;;;52.75;42.75;;;;;;;;6490762;31;8871;-61
2022/11/18 12:06:20;;;;;;;;;49.75;41.75;;;;;;;;6488835;47;8993;-61
2022/11/18 12:12:42;;;;;;;;;46.75;39.75;;;;;;;;6488487;47;8926;-62
2022/11/18 12:19:09;;;;;;;;;41.00;37.75;;;;;;;;6487124;47;9079;-61
2022/11/18 12:25:42;;;;;;;;;44.25;39.75;;;;;;;;6488619;39;8837;-60
2022/11/18 12:32:01;;;;;;;;;44.00;36.75;;;;;;;;6489288;39;9545;-61
2022/11/18 12:38:29;;;;;;;;;42.25;37.25;;;;;;;;6491078;39;8870;-61
2022/11/18 12:44:31;;;;;;;;;43.33;39.33;;;;;;;;6487812;39;8923;-62
2022/11/18 12:50:47;;;;;;;;;61.25;50.00;;;;;;;;6490099;39;8921;-60
2022/11/18 12:56:52;;;;;;;;;60.50;51.50;;;;;;;;6490376;46;8916;-62
2022/11/18 13:02:58;;;;;;;;;67.75;54.50;;;;;;;;6489832;46;9042;-62
2022/11/18 13:09:06;;;;;;;;;44.00;39.00;;;;;;;;6490981;39;9121;-62
2022/11/18 13:28:07;;;;;;;;;41.50;39.00;;;;;;;;6488446;46;8948;-61
2022/11/18 13:34:22;;;;;;;;;44.00;40.00;;;;;;;;6487882;39;9630;-61
2022/11/18 13:40:38;;;;;;;;;45.75;41.00;;;;;;;;4766628;36;10001660;-61
2022/11/18 13:46:42;;;;;;;;;58.75;49.25;;;;;;;;6488872;46;8928;-60
2022/11/18 13:52:54;;;;;;;;;69.75;55.25;;;;;;;;6490641;46;8933;-60
2022/11/18 13:58:59;;;;;;;;;54.25;42.50;;;;;;;;6490104;31;8963;-61
2022/11/18 14:05:22;;;;;;;;;61.00;49.00;;;;;;;;6490433;46;9055;-61
2022/11/18 14:11:37;;;;;;;;;54.00;45.00;;;;;;;;6489366;39;8881;-61
2022/11/18 14:17:50;;;;;;;;;55.00;43.25;;;;;;;;6490260;39;9526;-61
2022/11/18 14:23:52;;;;;;;;;53.75;44.50;;;;;;;;6487906;46;9120;-60
2022/11/18 14:29:55;;;;;;;;;57.50;47.75;;;;;;;;6486146;39;8965;-63
2022/11/18 14:36:16;;;;;;;;;57.00;45.00;;;;;;;;6487854;39;9055;-59
2022/11/18 14:42:18;;;;;;;;;58.00;49.25;;;;;;;;6488422;31;8942;-61
2022/11/18 14:48:23;;;;;;;;;61.25;50.75;;;;;;;;6487504;31;9039;-61
2022/11/18 14:54:33;;;;;;;;;48.75;44.50;;;;;;;;6487914;39;8930;-61
2022/11/18 15:00:35;;;;;;;;;57.75;46.50;;;;;;;;6489237;46;8829;-61
2022/11/18 15:06:39;;;;;;;;;51.00;43.00;;;;;;;;6491607;31;9139;-60
2022/11/18 15:12:41;;;;;;;;;58.25;45.25;;;;;;;;6490328;31;8947;-59
2022/11/18 15:18:46;;;;;;;;;54.25;44.00;;;;;;;;6490273;39;8868;-60
2022/11/18 15:24:49;;;;;;;;;39.75;36.25;;;;;;;;6489169;31;8956;-60
2022/11/18 15:30:52;;;;;;;;;59.50;47.75;;;;;;;;6489264;39;8984;-61
2022/11/18 15:36:54;;;;;;;;;63.75;51.75;;;;;;;;6489455;31;8980;-60
2022/11/18 15:42:56;;;;;;;;;60.50;47.50;;;;;;;;6488735;39;9695;-61
2022/11/18 15:48:59;;;;;;;;;65.50;49.25;;;;;;;;6490713;39;9532;-61
2022/11/18 15:55:02;;;;;;;;;70.25;52.00;;;;;;;;6490134;31;8995;-61
2022/11/18 16:01:09;;;;;;;;;64.25;53.25;;;;;;;;6490130;39;9621;-60
2022/11/18 16:07:12;;;;;;;;;52.50;45.00;;;;;;;;6491036;39;9835;-60
2022/11/18 16:13:19;;;;;;;;;66.00;54.25;;;;;;;;6490349;39;8988;-61
2022/11/18 16:19:23;;;;;;;;;72.25;53.25;;;;;;;;6491622;31;8927;-60
2022/11/18 16:25:26;;;;;;;;;66.50;53.00;;;;;;;;6489999;39;9560;-60
2022/11/18 16:31:42;;;;;;;;;64.25;51.00;;;;;;;;6489794;47;8985;-60
2022/11/18 16:37:47;;;;;;;;;72.00;56.00;;;;;;;;6492000;31;8966;-58
2022/11/18 16:43:49;;;;;;;;;67.00;52.50;;;;;;;;6490815;39;9321;-60
2022/11/18 16:49:51;;;;;;;;;65.75;55.25;;;;;;;;6489564;47;8992;-60
2022/11/18 16:56:01;;;;;;;;;77.25;60.00;;;;;;;;6489800;39;8945;-61
2022/11/18 17:02:04;;;;;;;;;54.25;47.25;;;;;;;;6489252;47;9005;-61
2022/11/18 17:08:07;;;;;;;;;60.50;46.50;;;;;;;;6490829;39;8905;-60
2022/11/18 17:14:09;;;;;;;;;65.50;52.00;;;;;;;;6489631;39;8975;-59
2022/11/18 17:20:11;;;;;;;;;65.00;53.00;;;;;;;;6492053;46;8850;-60
2022/11/18 17:26:19;;;;;;;;;69.50;57.50;;;;;;;;6492278;39;8879;-61
2022/11/18 17:32:21;;;;;;;;;68.75;55.50;;;;;;;;6492202;39;8865;-60
2022/11/18 17:38:23;;;;;;;;;67.25;54.00;;;;;;;;6490773;39;8967;-62
2022/11/18 17:44:28;;;;;;;;;66.75;54.00;;;;;;;;6490266;46;8918;-61
2022/11/18 17:50:30;;;;;;;;;67.00;56.50;;;;;;;;6490882;39;8864;-60
2022/11/18 17:56:33;;;;;;;;;61.50;51.25;;;;;;;;6491300;46;8895;-61
2022/11/18 18:02:36;;;;;;;;;68.00;52.50;;;;;;;;6491000;31;8932;-60
2022/11/18 18:08:39;;;;;;;;;68.25;55.25;;;;;;;;6491374;39;8904;-61
2022/11/18 18:14:41;;;;;;;;;61.50;52.00;;;;;;;;6490383;39;8876;-60
2022/11/18 18:20:44;;;;;;;;;71.75;55.50;;;;;;;;6490696;31;8833;-59
2022/11/18 18:26:47;;;;;;;;;69.25;55.00;;;;;;;;6490331;39;8949;-60
2022/11/18 18:32:49;;;;;;;;;64.75;50.00;;;;;;;;6489934;39;9029;-61
2022/11/18 18:38:56;;;;;;;;;70.50;57.00;;;;;;;;6490647;39;8881;-60
2022/11/18 18:51:19;;;;;;;;;74.50;59.00;;;;;;;;6491295;39;8903;-61
2022/11/18 18:57:20;;;;;;;;;69.00;55.75;;;;;;;;6490445;39;9496;-60
2022/11/18 19:03:23;;;;;;;;;70.00;54.00;;;;;;;;6489579;39;8971;-60
2022/11/18 19:09:27;;;;;;;;;66.75;53.25;;;;;;;;6490382;46;8937;-61
2022/11/18 19:15:29;;;;;;;;;49.75;40.25;;;;;;;;6489355;39;8961;-61
2022/11/18 19:21:34;;;;;;;;;64.75;52.00;;;;;;;;6490379;46;8842;-61
2022/11/18 19:27:38;;;;;;;;;62.25;50.50;;;;;;;;6489717;39;8860;-61
2022/11/18 19:33:41;;;;;;;;;63.25;49.75;;;;;;;;6489326;39;8916;-60
2022/11/18 19:39:44;;;;;;;;;65.50;52.75;;;;;;;;6488323;31;8913;-61
2022/11/18 19:45:51;;;;;;;;;65.00;51.25;;;;;;;;6487668;39;8931;-59
2022/11/18 19:51:56;;;;;;;;;64.75;51.75;;;;;;;;6488589;31;8896;-60
2022/11/18 19:57:59;;;;;;;;;59.75;49.00;;;;;;;;6488028;39;9597;-60
2022/11/18 20:04:01;;;;;;;;;62.75;49.75;;;;;;;;6488445;39;8912;-61
2022/11/18 20:10:08;;;;;;;;;66.00;52.50;;;;;;;;6488091;39;8952;-61
2022/11/18 20:16:14;;;;;;;;;69.75;54.00;;;;;;;;6487618;39;9915;-60
2022/11/18 20:22:16;;;;;;;;;67.75;54.00;;;;;;;;6487998;47;8888;-60
2022/11/18 20:28:18;;;;;;;;;63.25;50.50;;;;;;;;6488066;31;8921;-62
2022/11/18 20:34:21;;;;;;;;;66.00;54.25;;;;;;;;6488418;31;8920;-60
2022/11/18 20:40:23;;;;;;;;;67.50;54.00;;;;;;;;6488113;31;9178;-60
2022/11/18 20:46:25;;;;;;;;;67.50;53.25;;;;;;;;6487039;47;8861;-60
2022/11/18 20:52:29;;;;;;;;;66.50;53.00;;;;;;;;6489632;31;9577;-62
2022/11/18 20:58:34;;;;;;;;;67.00;57.25;;;;;;;;6490561;31;8889;-58
2022/11/18 21:04:36;;;;;;;;;64.50;53.75;;;;;;;;6490301;31;8908;-60
2022/11/18 21:10:40;;;;;;;;;67.50;56.75;;;;;;;;6489891;39;9627;-60
2022/11/18 21:16:43;;;;;;;;;62.75;50.00;;;;;;;;6489472;46;8868;-60
2022/11/18 21:22:45;;;;;;;;;72.25;56.50;;;;;;;;6489953;39;8916;-61
2022/11/18 21:28:53;;;;;;;;;70.00;55.50;;;;;;;;6489444;39;9508;-59
2022/11/18 21:34:55;;;;;;;;;66.50;54.75;;;;;;;;6489345;39;8888;-61
2022/11/18 21:41:05;;;;;;;;;72.25;56.25;;;;;;;;6488801;46;8953;-61
2022/11/18 21:47:07;;;;;;;;;65.00;51.50;;;;;;;;6488724;39;8904;-60
2022/11/18 21:53:09;;;;;;;;;67.00;55.00;;;;;;;;6488951;39;9018;-60
2022/11/18 21:59:12;;;;;;;;;64.75;50.75;;;;;;;;6489133;39;8865;-62
2022/11/18 22:05:14;;;;;;;;;71.75;55.50;;;;;;;;6488596;46;8911;-60
2022/11/18 22:11:17;;;;;;;;;75.00;59.75;;;;;;;;6489300;39;8936;-60
2022/11/18 22:17:20;;;;;;;;;66.00;51.75;;;;;;;;6489098;31;8848;-59
2022/11/18 22:23:24;;;;;;;;;57.50;45.25;;;;;;;;6489358;31;8906;-60
2022/11/18 22:29:27;;;;;;;;;67.67;55.67;;;;;;;;6489200;31;8968;-60
2022/11/18 22:35:29;;;;;;;;;64.50;52.25;;;;;;;;6488754;31;9595;-61
2022/11/18 22:47:53;;;;;;;;;65.75;55.00;;;;;;;;6489134;39;8901;-60
2022/11/18 22:53:56;;;;;;;;;71.75;55.00;;;;;;;;6490231;39;8891;-61
2022/11/18 23:00:19;;;;;;;;;64.25;47.00;;;;;;;;6488850;39;9559;-61
2022/11/18 23:06:21;;;;;;;;;68.00;53.75;;;;;;;;6489011;46;8885;-60
2022/11/18 23:18:49;;;;;;;;;63.00;51.25;;;;;;;;6488156;39;8995;-60
2022/11/18 23:24:54;;;;;;;;;60.75;50.25;;;;;;;;6488605;39;8882;-59
2022/11/18 23:31:17;;;;;;;;;65.50;51.00;;;;;;;;6488697;39;8913;-60
2022/11/18 23:37:19;;;;;;;;;62.50;51.00;;;;;;;;6489338;39;9543;-60
2022/11/18 23:43:26;;;;;;;;;63.50;53.50;;;;;;;;6487207;46;8976;-61
2022/11/18 23:49:29;;;;;;;;;67.25;54.50;;;;;;;;6488676;46;8901;-60
2022/11/18 23:55:32;;;;;;;;;61.00;49.75;;;;;;;;6488278;31;8873;-60
